sensor_id;sensor_type;location;lat;lon;timestamp;P1;durP1;ratioP1;P2;durP2;ratioP2
75704;SDS011;65807;44.726;37.764;2022-12-05T17:04:22;11.15;;;2.13;;
75704;SDS011;65807;44.726;37.764;2022-12-05T17:05:26;15.93;;;2.22;;
75704;SDS011;65807;44.726;37.764;2022-12-05T17:06:28;10.70;;;2.25;;
75704;SDS011;65807;44.726;37.764;2022-12-05T17:08:31;9.65;;;2.30;;
75704;SDS011;65807;44.726;37.764;2022-12-05T17:09:33;9.23;;;2.42;;
75704;SDS011;65807;44.726;37.764;2022-12-05T17:10:34;7.88;;;2.20;;
75704;SDS011;65807;44.726;37.764;2022-12-05T17:11:36;6.93;;;1.95;;
75704;SDS011;65807;44.726;37.764;2022-12-05T17:12:40;8.68;;;2.03;;
75704;SDS011;65807;44.726;37.764;2022-12-05T17:13:43;11.32;;;2.20;;
75704;SDS011;65807;44.726;37.764;2022-12-05T17:14:48;9.60;;;2.30;;
75704;SDS011;65807;44.726;37.764;2022-12-05T17:15:50;9.70;;;1.60;;
75704;SDS011;65807;44.726;37.764;2022-12-05T17:16:51;5.88;;;1.70;;
75704;SDS011;65807;44.726;37.764;2022-12-05T17:18:54;12.48;;;1.92;;
75704;SDS011;65807;44.726;37.764;2022-12-05T17:19:56;8.88;;;2.05;;
75704;SDS011;65807;44.726;37.764;2022-12-05T17:22:00;11.85;;;2.08;;
75704;SDS011;65807;44.726;37.764;2022-12-05T17:23:02;9.07;;;1.98;;
75704;SDS011;65807;44.726;37.764;2022-12-05T17:24:04;11.23;;;1.77;;
75704;SDS011;65807;44.726;37.764;2022-12-05T17:25:16;6.22;;;2.00;;
75704;SDS011;65807;44.726;37.764;2022-12-05T17:26:36;9.77;;;2.15;;
75704;SDS011;65807;44.726;37.764;2022-12-05T17:27:37;15.23;;;2.45;;
75704;SDS011;65807;44.726;37.764;2022-12-05T17:28:39;12.48;;;2.22;;
75704;SDS011;65807;44.726;37.764;2022-12-05T17:29:41;8.73;;;1.85;;
75704;SDS011;65807;44.726;37.764;2022-12-05T17:30:42;10.73;;;2.10;;
75704;SDS011;65807;44.726;37.764;2022-12-05T17:31:44;13.80;;;2.05;;
75704;SDS011;65807;44.726;37.764;2022-12-05T17:33:47;8.15;;;1.60;;
75704;SDS011;65807;44.726;37.764;2022-12-05T17:34:49;12.18;;;2.38;;
75704;SDS011;65807;44.726;37.764;2022-12-05T17:35:51;19.08;;;2.67;;
75704;SDS011;65807;44.726;37.764;2022-12-05T17:36:53;14.98;;;1.83;;
75704;SDS011;65807;44.726;37.764;2022-12-05T17:37:54;8.85;;;1.40;;
75704;SDS011;65807;44.726;37.764;2022-12-05T17:38:56;15.52;;;1.75;;
75704;SDS011;65807;44.726;37.764;2022-12-05T17:39:58;8.82;;;1.80;;
75704;SDS011;65807;44.726;37.764;2022-12-05T17:41:00;15.73;;;1.90;;
75704;SDS011;65807;44.726;37.764;2022-12-05T17:42:02;9.95;;;1.70;;
75704;SDS011;65807;44.726;37.764;2022-12-05T17:43:03;8.52;;;1.90;;
75704;SDS011;65807;44.726;37.764;2022-12-05T17:44:05;10.10;;;1.80;;
75704;SDS011;65807;44.726;37.764;2022-12-05T17:45:10;14.30;;;2.28;;
75704;SDS011;65807;44.726;37.764;2022-12-05T17:46:14;19.60;;;1.95;;
75704;SDS011;65807;44.726;37.764;2022-12-05T17:47:21;11.55;;;1.98;;
75704;SDS011;65807;44.726;37.764;2022-12-05T17:48:31;13.30;;;2.13;;
75704;SDS011;65807;44.726;37.764;2022-12-05T17:49:33;12.80;;;2.00;;
75704;SDS011;65807;44.726;37.764;2022-12-05T17:51:36;21.30;;;2.75;;
75704;SDS011;65807;44.726;37.764;2022-12-05T17:52:38;24.63;;;3.03;;
75704;SDS011;65807;44.726;37.764;2022-12-05T17:53:40;36.53;;;3.47;;
75704;SDS011;65807;44.726;37.764;2022-12-05T17:54:42;21.40;;;2.78;;
75704;SDS011;65807;44.726;37.764;2022-12-05T17:55:44;22.10;;;2.15;;
75704;SDS011;65807;44.726;37.764;2022-12-05T17:56:48;10.88;;;1.80;;
75704;SDS011;65807;44.726;37.764;2022-12-05T17:58:51;12.23;;;2.13;;
75704;SDS011;65807;44.726;37.764;2022-12-05T17:59:52;7.40;;;2.00;;
75704;SDS011;65807;44.726;37.764;2022-12-05T18:00:54;9.57;;;2.05;;
75704;SDS011;65807;44.726;37.764;2022-12-05T18:01:56;11.20;;;1.77;;
75704;SDS011;65807;44.726;37.764;2022-12-05T18:02:57;11.93;;;2.03;;
75704;SDS011;65807;44.726;37.764;2022-12-05T18:03:59;11.82;;;2.00;;
75704;SDS011;65807;44.726;37.764;2022-12-05T18:05:01;12.18;;;2.10;;
75704;SDS011;65807;44.726;37.764;2022-12-05T18:06:04;9.30;;;1.73;;
75704;SDS011;65807;44.726;37.764;2022-12-05T18:07:06;7.72;;;1.80;;
75704;SDS011;65807;44.726;37.764;2022-12-05T18:08:08;11.68;;;1.90;;
75704;SDS011;65807;44.726;37.764;2022-12-05T18:09:10;8.88;;;1.73;;
75704;SDS011;65807;44.726;37.764;2022-12-05T18:10:13;7.30;;;1.60;;
75704;SDS011;65807;44.726;37.764;2022-12-05T18:11:17;9.13;;;1.98;;
75704;SDS011;65807;44.726;37.764;2022-12-05T18:12:19;5.10;;;1.60;;
75704;SDS011;65807;44.726;37.764;2022-12-05T18:13:20;4.65;;;1.55;;
75704;SDS011;65807;44.726;37.764;2022-12-05T18:15:23;10.18;;;1.92;;
75704;SDS011;65807;44.726;37.764;2022-12-05T18:16:25;10.30;;;1.80;;
75704;SDS011;65807;44.726;37.764;2022-12-05T18:18:28;5.32;;;1.50;;
75704;SDS011;65807;44.726;37.764;2022-12-05T18:19:30;6.13;;;1.65;;
75704;SDS011;65807;44.726;37.764;2022-12-05T18:21:33;7.40;;;1.60;;
75704;SDS011;65807;44.726;37.764;2022-12-05T18:22:35;7.53;;;1.52;;
75704;SDS011;65807;44.726;37.764;2022-12-05T18:23:37;4.50;;;1.60;;
75704;SDS011;65807;44.726;37.764;2022-12-05T18:24:40;5.88;;;1.10;;
75704;SDS011;65807;44.726;37.764;2022-12-05T18:25:42;11.13;;;1.95;;
75704;SDS011;65807;44.726;37.764;2022-12-05T18:26:43;7.68;;;1.75;;
75704;SDS011;65807;44.726;37.764;2022-12-05T18:27:45;7.90;;;1.65;;
75704;SDS011;65807;44.726;37.764;2022-12-05T18:29:49;4.35;;;1.20;;
75704;SDS011;65807;44.726;37.764;2022-12-05T18:31:01;4.20;;;1.27;;
75704;SDS011;65807;44.726;37.764;2022-12-05T18:32:06;4.60;;;1.40;;
75704;SDS011;65807;44.726;37.764;2022-12-05T18:33:07;5.53;;;1.35;;
75704;SDS011;65807;44.726;37.764;2022-12-05T18:34:09;6.65;;;1.73;;
75704;SDS011;65807;44.726;37.764;2022-12-05T18:35:11;4.28;;;1.40;;
75704;SDS011;65807;44.726;37.764;2022-12-05T18:36:13;8.35;;;1.50;;
75704;SDS011;65807;44.726;37.764;2022-12-05T18:37:17;8.32;;;1.40;;
75704;SDS011;65807;44.726;37.764;2022-12-05T18:38:19;13.90;;;1.50;;
75704;SDS011;65807;44.726;37.764;2022-12-05T18:39:21;4.43;;;1.17;;
75704;SDS011;65807;44.726;37.764;2022-12-05T18:40:22;4.20;;;1.35;;
75704;SDS011;65807;44.726;37.764;2022-12-05T18:41:24;5.15;;;1.20;;
75704;SDS011;65807;44.726;37.764;2022-12-05T18:42:27;14.63;;;1.27;;
75704;SDS011;65807;44.726;37.764;2022-12-05T18:43:28;10.18;;;1.27;;
75704;SDS011;65807;44.726;37.764;2022-12-05T18:44:31;7.93;;;1.30;;
75704;SDS011;65807;44.726;37.764;2022-12-05T18:45:33;4.85;;;1.45;;
75704;SDS011;65807;44.726;37.764;2022-12-05T18:46:35;6.45;;;1.35;;
75704;SDS011;65807;44.726;37.764;2022-12-05T18:47:40;2.38;;;1.00;;
75704;SDS011;65807;44.726;37.764;2022-12-05T18:49:43;7.35;;;1.50;;
75704;SDS011;65807;44.726;37.764;2022-12-05T18:50:44;5.80;;;1.30;;
75704;SDS011;65807;44.726;37.764;2022-12-05T18:51:49;9.02;;;1.30;;
75704;SDS011;65807;44.726;37.764;2022-12-05T18:52:50;6.28;;;1.48;;
75704;SDS011;65807;44.726;37.764;2022-12-05T18:53:52;4.30;;;1.30;;
75704;SDS011;65807;44.726;37.764;2022-12-05T18:54:54;6.30;;;1.15;;
75704;SDS011;65807;44.726;37.764;2022-12-05T18:56:01;6.07;;;1.10;;
75704;SDS011;65807;44.726;37.764;2022-12-05T18:57:04;8.20;;;1.40;;
75704;SDS011;65807;44.726;37.764;2022-12-05T18:58:05;6.75;;;1.33;;
75704;SDS011;65807;44.726;37.764;2022-12-05T18:59:09;5.80;;;1.30;;
75704;SDS011;65807;44.726;37.764;2022-12-05T19:00:15;4.35;;;1.40;;
75704;SDS011;65807;44.726;37.764;2022-12-05T19:01:17;3.97;;;1.60;;
75704;SDS011;65807;44.726;37.764;2022-12-05T19:02:20;1.55;;;1.20;;
75704;SDS011;65807;44.726;37.764;2022-12-05T19:03:24;4.78;;;1.45;;
75704;SDS011;65807;44.726;37.764;2022-12-05T19:04:26;6.00;;;1.70;;
75704;SDS011;65807;44.726;37.764;2022-12-05T19:05:29;6.75;;;1.70;;
75704;SDS011;65807;44.726;37.764;2022-12-05T19:06:32;4.57;;;1.70;;
75704;SDS011;65807;44.726;37.764;2022-12-05T19:07:36;5.57;;;1.70;;
75704;SDS011;65807;44.726;37.764;2022-12-05T19:08:37;4.60;;;1.48;;
75704;SDS011;65807;44.726;37.764;2022-12-05T19:09:39;2.80;;;1.20;;
75704;SDS011;65807;44.726;37.764;2022-12-05T19:10:41;3.03;;;1.17;;
75704;SDS011;65807;44.726;37.764;2022-12-05T19:11:43;3.90;;;1.00;;
75704;SDS011;65807;44.726;37.764;2022-12-05T19:12:46;6.40;;;1.15;;
75704;SDS011;65807;44.726;37.764;2022-12-05T19:13:48;4.13;;;1.50;;
75704;SDS011;65807;44.726;37.764;2022-12-05T19:14:50;3.42;;;1.10;;
75704;SDS011;65807;44.726;37.764;2022-12-05T19:15:51;5.78;;;1.17;;
75704;SDS011;65807;44.726;37.764;2022-12-05T19:17:01;2.97;;;1.30;;
75704;SDS011;65807;44.726;37.764;2022-12-05T19:18:03;4.03;;;1.25;;
75704;SDS011;65807;44.726;37.764;2022-12-05T19:19:06;3.58;;;1.20;;
75704;SDS011;65807;44.726;37.764;2022-12-05T19:20:09;3.67;;;1.20;;
75704;SDS011;65807;44.726;37.764;2022-12-05T19:21:11;4.25;;;1.33;;
75704;SDS011;65807;44.726;37.764;2022-12-05T19:22:13;3.65;;;1.08;;
75704;SDS011;65807;44.726;37.764;2022-12-05T19:24:16;4.47;;;1.00;;
75704;SDS011;65807;44.726;37.764;2022-12-05T19:25:19;2.38;;;1.20;;
75704;SDS011;65807;44.726;37.764;2022-12-05T19:27:22;2.85;;;1.20;;
75704;SDS011;65807;44.726;37.764;2022-12-05T19:28:24;3.70;;;1.25;;
75704;SDS011;65807;44.726;37.764;2022-12-05T19:29:26;2.15;;;1.20;;
75704;SDS011;65807;44.726;37.764;2022-12-05T19:30:27;5.07;;;1.25;;
75704;SDS011;65807;44.726;37.764;2022-12-05T19:31:30;4.38;;;0.90;;
75704;SDS011;65807;44.726;37.764;2022-12-05T19:32:32;2.95;;;1.00;;
75704;SDS011;65807;44.726;37.764;2022-12-05T19:33:35;2.53;;;1.10;;
75704;SDS011;65807;44.726;37.764;2022-12-05T19:34:39;4.40;;;1.30;;
75704;SDS011;65807;44.726;37.764;2022-12-05T19:35:41;2.47;;;0.88;;
75704;SDS011;65807;44.726;37.764;2022-12-05T19:36:44;3.92;;;1.10;;
75704;SDS011;65807;44.726;37.764;2022-12-05T19:37:46;2.53;;;1.10;;
75704;SDS011;65807;44.726;37.764;2022-12-05T19:38:48;6.00;;;1.13;;
75704;SDS011;65807;44.726;37.764;2022-12-05T19:39:51;5.07;;;1.10;;
75704;SDS011;65807;44.726;37.764;2022-12-05T19:40:54;6.13;;;1.00;;
75704;SDS011;65807;44.726;37.764;2022-12-05T19:41:59;6.00;;;1.50;;
75704;SDS011;65807;44.726;37.764;2022-12-05T19:43:01;4.68;;;1.10;;
75704;SDS011;65807;44.726;37.764;2022-12-05T19:44:04;2.08;;;1.00;;
75704;SDS011;65807;44.726;37.764;2022-12-05T19:45:06;4.25;;;1.30;;
75704;SDS011;65807;44.726;37.764;2022-12-05T19:46:18;3.65;;;1.40;;
75704;SDS011;65807;44.726;37.764;2022-12-05T19:47:22;3.40;;;1.10;;
75704;SDS011;65807;44.726;37.764;2022-12-05T19:48:23;3.20;;;1.40;;
75704;SDS011;65807;44.726;37.764;2022-12-05T19:49:25;2.90;;;1.00;;
75704;SDS011;65807;44.726;37.764;2022-12-05T19:50:27;4.57;;;1.13;;
75704;SDS011;65807;44.726;37.764;2022-12-05T19:51:31;2.17;;;1.00;;
75704;SDS011;65807;44.726;37.764;2022-12-05T19:52:34;1.90;;;1.05;;
75704;SDS011;65807;44.726;37.764;2022-12-05T19:53:38;2.47;;;1.35;;
75704;SDS011;65807;44.726;37.764;2022-12-05T19:54:41;4.60;;;1.30;;
75704;SDS011;65807;44.726;37.764;2022-12-05T19:55:43;4.40;;;1.30;;
75704;SDS011;65807;44.726;37.764;2022-12-05T19:56:46;2.28;;;1.20;;
75704;SDS011;65807;44.726;37.764;2022-12-05T19:57:47;3.28;;;1.15;;
75704;SDS011;65807;44.726;37.764;2022-12-05T19:58:51;2.03;;;1.10;;
75704;SDS011;65807;44.726;37.764;2022-12-05T19:59:54;7.88;;;1.60;;
75704;SDS011;65807;44.726;37.764;2022-12-05T20:01:57;3.65;;;1.10;;
75704;SDS011;65807;44.726;37.764;2022-12-05T20:02:59;2.53;;;1.08;;
75704;SDS011;65807;44.726;37.764;2022-12-05T20:04:03;2.45;;;1.20;;
75704;SDS011;65807;44.726;37.764;2022-12-05T20:05:09;2.75;;;0.90;;
75704;SDS011;65807;44.726;37.764;2022-12-05T20:06:11;1.73;;;1.00;;
75704;SDS011;65807;44.726;37.764;2022-12-05T20:08:14;4.63;;;1.10;;
75704;SDS011;65807;44.726;37.764;2022-12-05T20:09:18;6.50;;;0.90;;
75704;SDS011;65807;44.726;37.764;2022-12-05T20:10:21;2.13;;;1.08;;
75704;SDS011;65807;44.726;37.764;2022-12-05T20:11:25;8.45;;;1.80;;
75704;SDS011;65807;44.726;37.764;2022-12-05T20:12:28;2.60;;;1.20;;
75704;SDS011;65807;44.726;37.764;2022-12-05T20:13:30;3.70;;;1.10;;
75704;SDS011;65807;44.726;37.764;2022-12-05T20:14:34;5.00;;;0.93;;
75704;SDS011;65807;44.726;37.764;2022-12-05T20:15:35;2.65;;;0.77;;
75704;SDS011;65807;44.726;37.764;2022-12-05T20:16:38;2.20;;;1.05;;
75704;SDS011;65807;44.726;37.764;2022-12-05T20:17:40;3.47;;;1.08;;
75704;SDS011;65807;44.726;37.764;2022-12-05T20:18:42;2.33;;;1.13;;
75704;SDS011;65807;44.726;37.764;2022-12-05T20:19:45;3.60;;;0.90;;
75704;SDS011;65807;44.726;37.764;2022-12-05T20:20:54;1.70;;;0.90;;
75704;SDS011;65807;44.726;37.764;2022-12-05T20:22:00;2.67;;;1.20;;
75704;SDS011;65807;44.726;37.764;2022-12-05T20:24:04;3.00;;;1.10;;
75704;SDS011;65807;44.726;37.764;2022-12-05T20:25:06;3.17;;;0.80;;
75704;SDS011;65807;44.726;37.764;2022-12-05T20:26:12;3.33;;;0.90;;
75704;SDS011;65807;44.726;37.764;2022-12-05T20:27:14;3.22;;;0.80;;
75704;SDS011;65807;44.726;37.764;2022-12-05T20:28:16;3.47;;;1.02;;
75704;SDS011;65807;44.726;37.764;2022-12-05T20:29:23;2.20;;;1.00;;
75704;SDS011;65807;44.726;37.764;2022-12-05T20:30:27;6.43;;;1.05;;
75704;SDS011;65807;44.726;37.764;2022-12-05T20:31:37;2.08;;;0.98;;
75704;SDS011;65807;44.726;37.764;2022-12-05T20:32:45;2.40;;;0.88;;
75704;SDS011;65807;44.726;37.764;2022-12-05T20:33:47;1.17;;;0.75;;
75704;SDS011;65807;44.726;37.764;2022-12-05T20:34:50;4.20;;;0.85;;
75704;SDS011;65807;44.726;37.764;2022-12-05T20:35:53;3.53;;;0.90;;
75704;SDS011;65807;44.726;37.764;2022-12-05T20:36:56;4.07;;;1.15;;
75704;SDS011;65807;44.726;37.764;2022-12-05T20:37:59;3.38;;;1.00;;
75704;SDS011;65807;44.726;37.764;2022-12-05T20:40:07;4.45;;;0.90;;
75704;SDS011;65807;44.726;37.764;2022-12-05T20:41:10;2.08;;;0.80;;
75704;SDS011;65807;44.726;37.764;2022-12-05T20:42:16;2.95;;;1.00;;
75704;SDS011;65807;44.726;37.764;2022-12-05T20:43:18;4.45;;;0.90;;
75704;SDS011;65807;44.726;37.764;2022-12-05T20:44:20;2.63;;;0.82;;
75704;SDS011;65807;44.726;37.764;2022-12-05T20:45:24;2.33;;;1.05;;
75704;SDS011;65807;44.726;37.764;2022-12-05T20:47:29;1.52;;;0.80;;
75704;SDS011;65807;44.726;37.764;2022-12-05T20:49:33;3.25;;;1.15;;
75704;SDS011;65807;44.726;37.764;2022-12-05T20:51:38;2.70;;;0.90;;
75704;SDS011;65807;44.726;37.764;2022-12-05T20:52:41;5.07;;;0.90;;
75704;SDS011;65807;44.726;37.764;2022-12-05T20:53:43;3.67;;;0.80;;
75704;SDS011;65807;44.726;37.764;2022-12-05T20:54:45;3.60;;;1.00;;
75704;SDS011;65807;44.726;37.764;2022-12-05T20:57:50;1.95;;;0.95;;
75704;SDS011;65807;44.726;37.764;2022-12-05T20:58:53;2.65;;;0.88;;
75704;SDS011;65807;44.726;37.764;2022-12-05T20:59:59;5.68;;;0.90;;
75704;SDS011;65807;44.726;37.764;2022-12-05T21:01:01;1.25;;;0.60;;
75704;SDS011;65807;44.726;37.764;2022-12-05T21:02:04;1.50;;;0.75;;
75704;SDS011;65807;44.726;37.764;2022-12-05T21:03:06;2.70;;;1.25;;
75704;SDS011;65807;44.726;37.764;2022-12-05T21:04:09;1.52;;;0.80;;
75704;SDS011;65807;44.726;37.764;2022-12-05T21:05:11;4.00;;;0.88;;
75704;SDS011;65807;44.726;37.764;2022-12-05T21:06:14;1.25;;;0.80;;
75704;SDS011;65807;44.726;37.764;2022-12-05T21:07:17;1.52;;;0.85;;
75704;SDS011;65807;44.726;37.764;2022-12-05T21:08:21;4.00;;;0.73;;
75704;SDS011;65807;44.726;37.764;2022-12-05T21:09:22;3.15;;;0.77;;
75704;SDS011;65807;44.726;37.764;2022-12-05T21:10:32;3.90;;;0.80;;
75704;SDS011;65807;44.726;37.764;2022-12-05T21:11:33;4.38;;;0.63;;
75704;SDS011;65807;44.726;37.764;2022-12-05T21:13:37;1.10;;;0.60;;
75704;SDS011;65807;44.726;37.764;2022-12-05T21:14:39;3.70;;;0.70;;
75704;SDS011;65807;44.726;37.764;2022-12-05T21:15:40;1.65;;;0.80;;
75704;SDS011;65807;44.726;37.764;2022-12-05T21:16:42;1.38;;;0.80;;
75704;SDS011;65807;44.726;37.764;2022-12-05T21:18:45;2.83;;;0.90;;
75704;SDS011;65807;44.726;37.764;2022-12-05T21:19:47;3.90;;;0.65;;
75704;SDS011;65807;44.726;37.764;2022-12-05T21:20:58;0.88;;;0.60;;
75704;SDS011;65807;44.726;37.764;2022-12-05T21:22:01;2.47;;;0.80;;
75704;SDS011;65807;44.726;37.764;2022-12-05T21:23:03;2.53;;;0.80;;
75704;SDS011;65807;44.726;37.764;2022-12-05T21:24:05;1.45;;;0.80;;
75704;SDS011;65807;44.726;37.764;2022-12-05T21:25:07;2.50;;;0.80;;
75704;SDS011;65807;44.726;37.764;2022-12-05T21:27:11;1.48;;;0.80;;
75704;SDS011;65807;44.726;37.764;2022-12-05T21:28:13;1.98;;;0.70;;
75704;SDS011;65807;44.726;37.764;2022-12-05T21:30:16;1.65;;;0.70;;
75704;SDS011;65807;44.726;37.764;2022-12-05T21:31:20;1.55;;;0.77;;
75704;SDS011;65807;44.726;37.764;2022-12-05T21:32:21;3.13;;;0.80;;
75704;SDS011;65807;44.726;37.764;2022-12-05T21:34:24;2.30;;;0.80;;
75704;SDS011;65807;44.726;37.764;2022-12-05T21:36:29;1.27;;;0.80;;
75704;SDS011;65807;44.726;37.764;2022-12-05T21:37:34;1.45;;;0.80;;
75704;SDS011;65807;44.726;37.764;2022-12-05T21:38:37;2.20;;;0.65;;
75704;SDS011;65807;44.726;37.764;2022-12-05T21:39:39;1.55;;;0.60;;
75704;SDS011;65807;44.726;37.764;2022-12-05T21:41:42;1.40;;;0.60;;
75704;SDS011;65807;44.726;37.764;2022-12-05T21:43:45;1.38;;;0.70;;
75704;SDS011;65807;44.726;37.764;2022-12-05T21:44:46;2.25;;;0.52;;
75704;SDS011;65807;44.726;37.764;2022-12-05T21:46:55;1.25;;;0.60;;
75704;SDS011;65807;44.726;37.764;2022-12-05T21:48:58;1.10;;;0.50;;
75704;SDS011;65807;44.726;37.764;2022-12-05T21:50:00;0.63;;;0.50;;
75704;SDS011;65807;44.726;37.764;2022-12-05T21:51:05;2.22;;;0.82;;
75704;SDS011;65807;44.726;37.764;2022-12-05T21:52:08;1.50;;;0.70;;
75704;SDS011;65807;44.726;37.764;2022-12-05T21:54:11;2.28;;;0.50;;
75704;SDS011;65807;44.726;37.764;2022-12-05T21:55:12;2.63;;;0.70;;
75704;SDS011;65807;44.726;37.764;2022-12-05T21:56:15;1.20;;;0.60;;
75704;SDS011;65807;44.726;37.764;2022-12-05T21:57:18;1.23;;;0.55;;
75704;SDS011;65807;44.726;37.764;2022-12-05T21:58:20;1.20;;;0.60;;
75704;SDS011;65807;44.726;37.764;2022-12-05T21:59:22;2.92;;;0.90;;
75704;SDS011;65807;44.726;37.764;2022-12-05T22:01:26;0.73;;;0.63;;
75704;SDS011;65807;44.726;37.764;2022-12-05T22:02:29;1.85;;;0.70;;
75704;SDS011;65807;44.726;37.764;2022-12-05T22:04:32;0.82;;;0.60;;
75704;SDS011;65807;44.726;37.764;2022-12-05T22:06:34;1.00;;;0.50;;
75704;SDS011;65807;44.726;37.764;2022-12-05T22:07:36;2.22;;;0.73;;
75704;SDS011;65807;44.726;37.764;2022-12-05T22:09:40;0.90;;;0.47;;
75704;SDS011;65807;44.726;37.764;2022-12-05T22:10:42;2.35;;;0.60;;
75704;SDS011;65807;44.726;37.764;2022-12-05T22:11:44;1.33;;;0.70;;
75704;SDS011;65807;44.726;37.764;2022-12-05T22:12:45;1.15;;;0.60;;
75704;SDS011;65807;44.726;37.764;2022-12-05T22:14:49;2.50;;;0.82;;
75704;SDS011;65807;44.726;37.764;2022-12-05T22:15:51;0.50;;;0.50;;
75704;SDS011;65807;44.726;37.764;2022-12-05T22:16:58;1.08;;;0.52;;
75704;SDS011;65807;44.726;37.764;2022-12-05T22:17:59;1.25;;;0.60;;
75704;SDS011;65807;44.726;37.764;2022-12-05T22:19:01;1.10;;;0.60;;
75704;SDS011;65807;44.726;37.764;2022-12-05T22:20:04;1.50;;;0.80;;
75704;SDS011;65807;44.726;37.764;2022-12-05T22:21:11;1.55;;;0.50;;
75704;SDS011;65807;44.726;37.764;2022-12-05T22:22:14;1.30;;;0.47;;
75704;SDS011;65807;44.726;37.764;2022-12-05T22:24:17;1.42;;;0.70;;
75704;SDS011;65807;44.726;37.764;2022-12-05T22:25:19;0.60;;;0.52;;
75704;SDS011;65807;44.726;37.764;2022-12-05T22:27:23;1.48;;;0.50;;
75704;SDS011;65807;44.726;37.764;2022-12-05T22:29:26;1.38;;;0.70;;
75704;SDS011;65807;44.726;37.764;2022-12-05T22:30:28;1.17;;;0.70;;
75704;SDS011;65807;44.726;37.764;2022-12-05T22:32:31;5.10;;;0.98;;
75704;SDS011;65807;44.726;37.764;2022-12-05T22:34:37;0.88;;;0.70;;
75704;SDS011;65807;44.726;37.764;2022-12-05T22:36:41;1.40;;;0.80;;
75704;SDS011;65807;44.726;37.764;2022-12-05T22:37:42;1.77;;;0.68;;
75704;SDS011;65807;44.726;37.764;2022-12-05T22:38:45;1.25;;;0.60;;
75704;SDS011;65807;44.726;37.764;2022-12-05T22:39:47;1.85;;;0.85;;
75704;SDS011;65807;44.726;37.764;2022-12-05T22:41:56;1.25;;;0.60;;
75704;SDS011;65807;44.726;37.764;2022-12-05T22:42:59;1.48;;;0.70;;
75704;SDS011;65807;44.726;37.764;2022-12-05T22:45:01;1.95;;;0.73;;
75704;SDS011;65807;44.726;37.764;2022-12-05T22:46:05;1.40;;;0.60;;
75704;SDS011;65807;44.726;37.764;2022-12-05T22:47:12;0.63;;;0.50;;
75704;SDS011;65807;44.726;37.764;2022-12-05T22:49:14;2.88;;;0.55;;
75704;SDS011;65807;44.726;37.764;2022-12-05T22:50:16;1.13;;;0.50;;
75704;SDS011;65807;44.726;37.764;2022-12-05T22:52:20;1.05;;;0.60;;
75704;SDS011;65807;44.726;37.764;2022-12-05T22:54:25;2.20;;;0.88;;
75704;SDS011;65807;44.726;37.764;2022-12-05T22:56:28;1.13;;;0.70;;
75704;SDS011;65807;44.726;37.764;2022-12-05T22:57:30;1.13;;;0.70;;
75704;SDS011;65807;44.726;37.764;2022-12-05T22:59:33;0.70;;;0.55;;
75704;SDS011;65807;44.726;37.764;2022-12-05T23:00:35;0.85;;;0.60;;
75704;SDS011;65807;44.726;37.764;2022-12-05T23:01:40;0.60;;;0.60;;
75704;SDS011;65807;44.726;37.764;2022-12-05T23:02:41;1.60;;;0.63;;
75704;SDS011;65807;44.726;37.764;2022-12-05T23:04:45;1.05;;;0.70;;
75704;SDS011;65807;44.726;37.764;2022-12-05T23:06:48;0.73;;;0.60;;
75704;SDS011;65807;44.726;37.764;2022-12-05T23:07:50;1.13;;;0.57;;
75704;SDS011;65807;44.726;37.764;2022-12-05T23:09:53;1.00;;;0.60;;
75704;SDS011;65807;44.726;37.764;2022-12-05T23:10:58;2.35;;;0.50;;
75704;SDS011;65807;44.726;37.764;2022-12-05T23:12:00;1.05;;;0.70;;
75704;SDS011;65807;44.726;37.764;2022-12-05T23:14:04;0.57;;;0.50;;
75704;SDS011;65807;44.726;37.764;2022-12-05T23:15:06;1.27;;;0.70;;
75704;SDS011;65807;44.726;37.764;2022-12-05T23:16:09;1.05;;;0.65;;
75704;SDS011;65807;44.726;37.764;2022-12-05T23:17:15;2.00;;;0.80;;
75704;SDS011;65807;44.726;37.764;2022-12-05T23:18:18;0.57;;;0.55;;
75704;SDS011;65807;44.726;37.764;2022-12-05T23:19:20;1.58;;;0.60;;
75704;SDS011;65807;44.726;37.764;2022-12-05T23:20:22;0.90;;;0.63;;
75704;SDS011;65807;44.726;37.764;2022-12-05T23:22:29;0.88;;;0.50;;
75704;SDS011;65807;44.726;37.764;2022-12-05T23:23:31;1.60;;;0.70;;
75704;SDS011;65807;44.726;37.764;2022-12-05T23:24:33;0.70;;;0.60;;
75704;SDS011;65807;44.726;37.764;2022-12-05T23:26:42;0.93;;;0.80;;
75704;SDS011;65807;44.726;37.764;2022-12-05T23:27:45;1.10;;;0.60;;
75704;SDS011;65807;44.726;37.764;2022-12-05T23:28:48;2.10;;;0.60;;
75704;SDS011;65807;44.726;37.764;2022-12-05T23:29:50;1.98;;;0.80;;
75704;SDS011;65807;44.726;37.764;2022-12-05T23:30:52;1.08;;;0.65;;
75704;SDS011;65807;44.726;37.764;2022-12-05T23:32:55;1.23;;;0.52;;
75704;SDS011;65807;44.726;37.764;2022-12-05T23:33:57;1.90;;;0.52;;
75704;SDS011;65807;44.726;37.764;2022-12-05T23:34:58;0.73;;;0.50;;
75704;SDS011;65807;44.726;37.764;2022-12-05T23:37:02;0.70;;;0.70;;
75704;SDS011;65807;44.726;37.764;2022-12-05T23:38:05;1.02;;;0.60;;
75704;SDS011;65807;44.726;37.764;2022-12-05T23:40:09;0.95;;;0.50;;
75704;SDS011;65807;44.726;37.764;2022-12-05T23:41:15;2.75;;;0.65;;
75704;SDS011;65807;44.726;37.764;2022-12-05T23:42:20;1.05;;;0.70;;
75704;SDS011;65807;44.726;37.764;2022-12-05T23:43:21;0.90;;;0.60;;
75704;SDS011;65807;44.726;37.764;2022-12-05T23:45:24;0.52;;;0.52;;
75704;SDS011;65807;44.726;37.764;2022-12-05T23:47:28;1.02;;;0.50;;
75704;SDS011;65807;44.726;37.764;2022-12-05T23:48:29;1.15;;;0.68;;
75704;SDS011;65807;44.726;37.764;2022-12-05T23:49:32;0.85;;;0.60;;
75704;SDS011;65807;44.726;37.764;2022-12-05T23:51:36;1.38;;;0.60;;
75704;SDS011;65807;44.726;37.764;2022-12-05T23:52:41;1.00;;;0.55;;
75704;SDS011;65807;44.726;37.764;2022-12-05T23:53:43;0.70;;;0.50;;
75704;SDS011;65807;44.726;37.764;2022-12-05T23:54:46;0.90;;;0.60;;
75704;SDS011;65807;44.726;37.764;2022-12-05T23:56:49;1.90;;;0.55;;
75704;SDS011;65807;44.726;37.764;2022-12-05T23:57:50;1.40;;;0.50;;
75704;SDS011;65807;44.726;37.764;2022-12-05T23:59:05;0.80;;;0.50;;
